Orbital elements of COSMOS 970 DEB
| Launched | 20 December 1977 |
| Flight ended | – |
| Launch site | Tyuratam Missile and Space Center, Kazakhstan (Also known as Baikonur Cosmodrome) |
| Owner | Commonwealth of Independent States (former USSR) |
| NORAD ID | 10566 |
| Date fetched |
Epoch osculation |
Inc. [°] |
Ecc. | RA asc node [hr] |
Arg Peri. [°] |
Mean anom [°] |
Mean motion [rev/day] |
Abs. mag |
| Date fetched |
Epoch osculation |
Inc. [°] |
Ecc. | RA asc node [hr] |
Arg Peri. [°] |
Mean anom [°] |
Mean motion [rev/day] |
Abs. mag |
| 2026 May 03 17:57 | 2026 Apr 30 08:26:36 | 65.7703 | 0.04181 | 23.1168 | 278.0833 | 77.2979 | 13.26616 | – |
| 2026 May 02 17:57 | 2026 Apr 30 08:26:36 | 65.7703 | 0.04181 | 23.1168 | 278.0833 | 77.2979 | 13.26616 | – |
| 2026 May 01 17:56 | 2026 Apr 30 08:26:36 | 65.7703 | 0.04181 | 23.1168 | 278.0833 | 77.2979 | 13.26616 | – |
| 2026 Apr 30 17:56 | 2026 Apr 30 08:26:36 | 65.7703 | 0.04181 | 23.1168 | 278.0833 | 77.2979 | 13.26616 | – |
| 2026 Apr 29 17:57 | 2026 Apr 24 02:16:21 | 65.7709 | 0.04183 | 0.0705 | 280.7986 | 77.2979 | 13.26616 | – |
| 2026 Apr 28 17:56 | 2026 Apr 24 02:16:21 | 65.7709 | 0.04183 | 0.0705 | 280.7986 | 77.2979 | 13.26616 | – |
| 2026 Apr 27 17:58 | 2026 Apr 24 02:16:21 | 65.7709 | 0.04183 | 0.0705 | 280.7986 | 77.2979 | 13.26616 | – |
| 2026 Apr 26 17:58 | 2026 Apr 24 02:16:21 | 65.7709 | 0.04183 | 0.0705 | 280.7986 | 77.2979 | 13.26616 | – |
| 2026 Apr 25 17:58 | 2026 Apr 24 02:16:21 | 65.7709 | 0.04183 | 0.0705 | 280.7986 | 77.2979 | 13.26616 | – |
| 2026 Apr 24 17:59 | 2026 Apr 24 02:16:21 | 65.7709 | 0.04183 | 0.0705 | 280.7986 | 77.2979 | 13.26616 | – |
| 2026 Apr 23 17:57 | 2026 Apr 19 02:51:32 | 65.7708 | 0.04186 | 0.8288 | 282.9565 | 77.2979 | 13.26616 | – |
| 2026 Apr 22 17:57 | 2026 Apr 19 02:51:32 | 65.7708 | 0.04186 | 0.8288 | 282.9565 | 77.2979 | 13.26616 | – |
| 2026 Apr 21 17:57 | 2026 Apr 19 02:51:32 | 65.7708 | 0.04186 | 0.8288 | 282.9565 | 77.2979 | 13.26616 | – |
| 2026 Apr 20 17:57 | 2026 Apr 19 02:51:32 | 65.7708 | 0.04186 | 0.8288 | 282.9565 | 77.2979 | 13.26616 | – |
| 2026 Apr 19 17:58 | 2026 Apr 19 02:51:32 | 65.7708 | 0.04186 | 0.8288 | 282.9565 | 77.2979 | 13.26616 | – |
| 2026 Apr 18 17:56 | 2026 Apr 13 05:44:01 | 65.7712 | 0.04189 | 1.7249 | 285.4927 | 77.2979 | 13.26616 | – |
| 2026 Apr 16 17:57 | 2026 Apr 13 05:44:01 | 65.7712 | 0.04189 | 1.7249 | 285.4927 | 77.2979 | 13.26616 | – |
| 2026 Apr 14 17:57 | 2026 Apr 13 05:44:01 | 65.7712 | 0.04189 | 1.7249 | 285.4927 | 77.2979 | 13.26616 | – |
| 2026 Apr 13 17:57 | 2026 Apr 13 05:44:01 | 65.7712 | 0.04189 | 1.7249 | 285.4927 | 77.2979 | 13.26616 | – |
| 2026 Apr 12 17:57 | 2026 Apr 08 06:19:11 | 65.7692 | 0.04192 | 2.4832 | 287.6269 | 77.2979 | 13.26616 | – |
| 2026 Apr 11 17:57 | 2026 Apr 08 06:19:11 | 65.7692 | 0.04192 | 2.4832 | 287.6269 | 77.2979 | 13.26616 | – |
| 2026 Apr 10 17:58 | 2026 Apr 08 06:19:11 | 65.7692 | 0.04192 | 2.4832 | 287.6269 | 77.2979 | 13.26616 | – |
| 2026 Apr 09 18:01 | 2026 Apr 08 06:19:11 | 65.7692 | 0.04192 | 2.4832 | 287.6269 | 77.2979 | 13.26616 | – |
| 2026 Apr 08 17:57 | 2026 Apr 08 06:19:11 | 65.7692 | 0.04192 | 2.4832 | 287.6269 | 77.2979 | 13.26616 | – |
| 2026 Apr 07 17:57 | 2026 Apr 02 07:23:06 | 65.7704 | 0.04194 | 3.3909 | 290.1848 | 77.2979 | 13.26616 | – |
| 2026 Apr 06 17:57 | 2026 Apr 02 07:23:06 | 65.7704 | 0.04194 | 3.3909 | 290.1848 | 77.2979 | 13.26616 | – |